Time;durP1;ratioP1;P1;durP2;ratioP2;P2;SDS_P1;SDS_P2;PMS_P1;PMS_P2;Temp;Humidity;BMP_temperature;BMP_pressure;BME280_temperature;BME280_humidity;BME280_pressure;Samples;Min_cycle;Max_cycle;Signal;HPM_P1;HPM_P2
2023/10/27 00:02:02;;;;;;;0.73;0.22;;;;;;;;;;5030958;28;20068;-73
2023/10/27 00:04:28;;;;;;;0.10;0.10;;;;;;;;;;5014341;28;20051;-72
2023/10/27 00:06:55;;;;;;;0.70;0.25;;;;;;;;;;5022653;28;20069;-75
2023/10/27 00:09:22;;;;;;;0.90;0.10;;;;;;;;;;5025399;28;20075;-74
2023/10/27 00:12:28;;;;;;;2.80;0.38;;;;;;;;;;5025892;28;20511;-75
2023/10/27 00:16:09;;;;;;;0.93;0.40;;;;;;;;;;5030718;28;20058;-74
2023/10/27 00:19:50;;;;;;;0.95;0.20;;;;;;;;;;5017292;28;20102;-77
2023/10/27 00:23:32;;;;;;;0.40;0.20;;;;;;;;;;5017209;28;20056;-74
2023/10/27 00:27:10;;;;;;;0.52;0.22;;;;;;;;;;5021681;28;20392;-74
2023/10/27 00:30:51;;;;;;;2.50;0.30;;;;;;;;;;5031348;28;20128;-75
2023/10/27 00:34:31;;;;;;;1.65;0.28;;;;;;;;;;5016463;28;20049;-75
2023/10/27 00:38:11;;;;;;;0.52;0.22;;;;;;;;;;5011046;28;20098;-74
2023/10/27 00:41:52;;;;;;;0.57;0.20;;;;;;;;;;5020661;28;20075;-76
2023/10/27 00:45:33;;;;;;;0.90;0.25;;;;;;;;;;5028791;28;20042;-73
2023/10/27 00:49:13;;;;;;;0.35;0.28;;;;;;;;;;5019556;28;20444;-75
2023/10/27 00:52:56;;;;;;;0.35;0.30;;;;;;;;;;5037002;28;20052;-73
2023/10/27 00:56:37;;;;;;;0.30;0.30;;;;;;;;;;5033207;28;20117;-75
2023/10/27 01:00:18;;;;;;;0.75;0.30;;;;;;;;;;5030992;28;20065;-75
2023/10/27 01:03:58;;;;;;;0.30;0.28;;;;;;;;;;5018537;28;20689;-73
2023/10/27 01:07:40;;;;;;;0.25;0.25;;;;;;;;;;5018841;28;20076;-75
2023/10/27 01:11:20;;;;;;;0.40;0.40;;;;;;;;;;5023929;28;20033;-73
2023/10/27 01:15:00;;;;;;;1.42;0.28;;;;;;;;;;5024421;28;20451;-71
2023/10/27 01:18:41;;;;;;;0.98;0.40;;;;;;;;;;5022881;28;20080;-75
2023/10/27 01:22:22;;;;;;;2.30;0.25;;;;;;;;;;5029272;28;20073;-74
2023/10/27 01:26:03;;;;;;;0.60;0.40;;;;;;;;;;5025996;28;20037;-74
2023/10/27 01:29:43;;;;;;;1.05;0.20;;;;;;;;;;5024853;28;20124;-72
2023/10/27 01:33:23;;;;;;;0.30;0.20;;;;;;;;;;5022914;28;20053;-75
2023/10/27 01:37:05;;;;;;;0.45;0.30;;;;;;;;;;5025170;28;20046;-73
2023/10/27 01:40:46;;;;;;;0.13;0.13;;;;;;;;;;5020476;28;20084;-75
2023/10/27 01:44:28;;;;;;;0.30;0.20;;;;;;;;;;5046853;28;20056;-72
2023/10/27 01:48:08;;;;;;;0.80;0.40;;;;;;;;;;5042150;28;20138;-73
2023/10/27 01:51:49;;;;;;;0.50;0.38;;;;;;;;;;5050110;28;20041;-74
2023/10/27 01:55:29;;;;;;;0.57;0.38;;;;;;;;;;5047892;28;20080;-74
2023/10/27 01:59:09;;;;;;;0.70;0.40;;;;;;;;;;5043394;28;20060;-75
2023/10/27 02:02:50;;;;;;;0.47;0.40;;;;;;;;;;5056816;28;20044;-74
2023/10/27 02:06:30;;;;;;;2.50;0.50;;;;;;;;;;5043485;28;20049;-72
2023/10/27 02:10:10;;;;;;;0.32;0.20;;;;;;;;;;5047524;28;20045;-75
2023/10/27 02:13:51;;;;;;;0.98;0.20;;;;;;;;;;5040236;28;20049;-76
2023/10/27 02:17:32;;;;;;;0.20;0.20;;;;;;;;;;5033376;28;20390;-75
2023/10/27 02:21:12;;;;;;;0.28;0.28;;;;;;;;;;5044813;28;20071;-74
2023/10/27 02:24:52;;;;;;;0.40;0.20;;;;;;;;;;5039438;28;20508;-74
2023/10/27 02:28:32;;;;;;;1.52;0.20;;;;;;;;;;5042118;28;20038;-72
2023/10/27 02:32:12;;;;;;;0.38;0.30;;;;;;;;;;5042838;28;20110;-73
2023/10/27 02:35:53;;;;;;;1.88;0.50;;;;;;;;;;5042364;28;20051;-74
2023/10/27 02:39:33;;;;;;;0.47;0.20;;;;;;;;;;5039144;28;20053;-71
2023/10/27 02:43:13;;;;;;;1.00;0.30;;;;;;;;;;5032333;28;20288;-72
2023/10/27 02:46:54;;;;;;;0.55;0.35;;;;;;;;;;5045228;28;20486;-75
2023/10/27 02:50:34;;;;;;;0.28;0.28;;;;;;;;;;5038222;28;20126;-73
2023/10/27 02:54:14;;;;;;;0.22;0.15;;;;;;;;;;5043951;28;20056;-73
2023/10/27 02:57:57;;;;;;;0.20;0.20;;;;;;;;;;5041092;28;20037;-73
2023/10/27 03:01:38;;;;;;;0.38;0.20;;;;;;;;;;5033488;28;20140;-75
2023/10/27 03:05:21;;;;;;;0.20;0.20;;;;;;;;;;5033868;28;20586;-73
2023/10/27 03:09:00;;;;;;;0.30;0.22;;;;;;;;;;5038134;28;20116;-73
2023/10/27 03:12:41;;;;;;;0.85;0.20;;;;;;;;;;5055448;28;20041;-71
2023/10/27 03:16:22;;;;;;;0.32;0.20;;;;;;;;;;5040400;28;20621;-73
2023/10/27 03:20:04;;;;;;;0.28;0.22;;;;;;;;;;5040198;28;20109;-74
2023/10/27 03:23:42;;;;;;;0.30;0.25;;;;;;;;;;5036821;28;20044;-74
2023/10/27 03:27:22;;;;;;;1.90;0.40;;;;;;;;;;5041921;28;20088;-74
2023/10/27 03:31:02;;;;;;;1.15;0.40;;;;;;;;;;5044710;28;20144;-76
2023/10/27 03:34:46;;;;;;;1.25;0.30;;;;;;;;;;5047242;28;20060;-73
2023/10/27 03:38:26;;;;;;;2.17;0.52;;;;;;;;;;5053360;28;20101;-74
2023/10/27 03:42:07;;;;;;;4.15;0.70;;;;;;;;;;5043239;28;20044;-74
2023/10/27 03:45:46;;;;;;;1.33;0.60;;;;;;;;;;5036015;28;20438;-73
2023/10/27 03:49:27;;;;;;;1.00;0.70;;;;;;;;;;5037869;28;20053;-74
2023/10/27 03:53:08;;;;;;;1.73;0.80;;;;;;;;;;5036415;28;20468;-72
2023/10/27 03:56:49;;;;;;;3.17;0.90;;;;;;;;;;5041846;28;20118;-74
2023/10/27 04:00:29;;;;;;;2.33;1.00;;;;;;;;;;5041636;28;20495;-76
2023/10/27 04:04:10;;;;;;;2.40;0.90;;;;;;;;;;5038962;28;20127;-76
2023/10/27 04:07:50;;;;;;;0.70;0.70;;;;;;;;;;5037194;28;20055;-74
2023/10/27 04:11:30;;;;;;;1.50;0.80;;;;;;;;;;5039909;28;20045;-75
2023/10/27 04:15:11;;;;;;;0.60;0.45;;;;;;;;;;5037091;28;20041;-75
2023/10/27 04:18:51;;;;;;;0.30;0.30;;;;;;;;;;5037767;28;20417;-74
2023/10/27 04:22:31;;;;;;;4.28;0.60;;;;;;;;;;5040783;28;20550;-74
2023/10/27 04:26:13;;;;;;;1.08;0.60;;;;;;;;;;5042836;28;20187;-75
2023/10/27 04:29:56;;;;;;;0.82;0.70;;;;;;;;;;5041158;28;20159;-75
2023/10/27 04:33:38;;;;;;;1.50;0.70;;;;;;;;;;5038465;28;20136;-73
2023/10/27 04:37:18;;;;;;;3.13;0.50;;;;;;;;;;5042148;28;20128;-76
2023/10/27 04:40:58;;;;;;;6.45;0.60;;;;;;;;;;5034079;28;20419;-75
2023/10/27 04:44:39;;;;;;;3.20;0.60;;;;;;;;;;5034924;28;20064;-75
2023/10/27 04:48:19;;;;;;;3.53;0.50;;;;;;;;;;5041547;28;20452;-76
2023/10/27 04:52:01;;;;;;;2.25;0.50;;;;;;;;;;5045150;28;20039;-75
2023/10/27 04:55:41;;;;;;;1.38;0.50;;;;;;;;;;5041491;28;20445;-77
2023/10/27 04:59:23;;;;;;;1.48;0.60;;;;;;;;;;5043323;28;20167;-74
2023/10/27 05:03:05;;;;;;;3.92;0.70;;;;;;;;;;5041959;28;20476;-76
2023/10/27 05:06:48;;;;;;;2.03;0.57;;;;;;;;;;5056144;28;20045;-76
2023/10/27 05:10:29;;;;;;;2.50;0.75;;;;;;;;;;5039578;28;20068;-75
2023/10/27 05:14:09;;;;;;;2.33;0.60;;;;;;;;;;5039647;28;20144;-74
2023/10/27 05:17:49;;;;;;;1.00;0.70;;;;;;;;;;5032598;28;20343;-72
2023/10/27 05:21:33;;;;;;;4.90;0.80;;;;;;;;;;5031827;28;20394;-73
2023/10/27 05:25:14;;;;;;;3.75;0.60;;;;;;;;;;5034190;28;20531;-77
2023/10/27 05:28:54;;;;;;;1.23;0.65;;;;;;;;;;5047345;28;20056;-73
2023/10/27 05:31:55;;;;;;;0.40;0.40;;;;;;;;;;5039884;28;20045;-76
2023/10/27 05:34:24;;;;;;;1.23;0.70;;;;;;;;;;5038898;28;20048;-77
2023/10/27 05:37:30;;;;;;;2.47;0.85;;;;;;;;;;5039740;28;20136;-74
2023/10/27 05:41:10;;;;;;;2.38;0.77;;;;;;;;;;5040515;28;20065;-75
2023/10/27 05:44:51;;;;;;;2.25;0.90;;;;;;;;;;5043513;28;20158;-76
2023/10/27 05:48:31;;;;;;;5.50;1.00;;;;;;;;;;5038158;28;20053;-75
2023/10/27 05:52:11;;;;;;;1.95;0.70;;;;;;;;;;5041186;28;20140;-72
2023/10/27 05:55:52;;;;;;;4.68;0.85;;;;;;;;;;5042221;28;20377;-72
2023/10/27 05:59:32;;;;;;;3.30;0.73;;;;;;;;;;5034659;28;20045;-73
2023/10/27 06:03:14;;;;;;;1.15;0.80;;;;;;;;;;5053606;28;20750;-74
2023/10/27 06:06:54;;;;;;;3.78;0.90;;;;;;;;;;5053325;28;20059;-74
2023/10/27 06:10:35;;;;;;;2.28;0.90;;;;;;;;;;5036048;28;20045;-74
2023/10/27 06:14:15;;;;;;;6.70;0.88;;;;;;;;;;5044078;28;20110;-72
2023/10/27 06:17:55;;;;;;;2.97;0.80;;;;;;;;;;5040711;28;20162;-72
2023/10/27 06:21:36;;;;;;;5.32;1.20;;;;;;;;;;5046704;28;20052;-75
2023/10/27 06:25:18;;;;;;;5.80;1.00;;;;;;;;;;5032862;28;20045;-73
2023/10/27 06:28:57;;;;;;;2.28;0.70;;;;;;;;;;5038443;28;20172;-73
2023/10/27 06:31:59;;;;;;;6.00;1.08;;;;;;;;;;5033172;28;20607;-72
2023/10/27 06:34:25;;;;;;;6.03;0.80;;;;;;;;;;5032749;28;20052;-72
2023/10/27 06:36:51;;;;;;;6.95;1.10;;;;;;;;;;5039056;28;20045;-74
2023/10/27 06:39:17;;;;;;;2.78;0.90;;;;;;;;;;5019869;28;20057;-74
2023/10/27 06:41:46;;;;;;;2.60;0.68;;;;;;;;;;5049017;28;20045;-76
2023/10/27 06:44:14;;;;;;;5.50;1.05;;;;;;;;;;5044293;28;20053;-70
2023/10/27 06:46:41;;;;;;;15.70;1.30;;;;;;;;;;5054682;28;20048;-73
2023/10/27 06:49:07;;;;;;;10.13;1.13;;;;;;;;;;5052381;28;20103;-67
2023/10/27 06:51:34;;;;;;;4.32;0.80;;;;;;;;;;5040226;28;20057;-80
2023/10/27 06:54:01;;;;;;;4.90;1.00;;;;;;;;;;5031077;28;20044;-78
2023/10/27 06:56:28;;;;;;;1.95;0.80;;;;;;;;;;5033527;28;20198;-78
2023/10/27 06:58:57;;;;;;;6.18;1.40;;;;;;;;;;5051526;28;20045;-76
2023/10/27 07:01:24;;;;;;;5.05;1.27;;;;;;;;;;5045715;28;20090;-74
2023/10/27 07:03:50;;;;;;;2.60;1.08;;;;;;;;;;5032954;28;20053;-79
2023/10/27 07:06:19;;;;;;;7.57;1.45;;;;;;;;;;5037195;28;20078;-75
2023/10/27 07:08:45;;;;;;;3.53;1.00;;;;;;;;;;5023025;28;20144;-78
2023/10/27 07:11:11;;;;;;;2.08;1.00;;;;;;;;;;5026065;28;20127;-78
2023/10/27 07:13:37;;;;;;;8.13;1.25;;;;;;;;;;5040781;28;20060;-77
2023/10/27 07:16:04;;;;;;;5.93;1.25;;;;;;;;;;5041565;28;20120;-79
2023/10/27 07:18:31;;;;;;;8.18;1.27;;;;;;;;;;5041550;28;20466;-79
2023/10/27 07:20:57;;;;;;;6.38;1.33;;;;;;;;;;5053581;28;20044;-77
2023/10/27 07:23:23;;;;;;;3.85;1.33;;;;;;;;;;5041910;28;20061;-78
2023/10/27 07:26:31;;;;;;;6.22;1.25;;;;;;;;;;5048371;28;20072;-79
2023/10/27 07:30:11;;;;;;;7.57;1.23;;;;;;;;;;5045884;28;20678;-78
2023/10/27 07:33:55;;;;;;;5.13;1.13;;;;;;;;;;5047859;28;20090;-79
2023/10/27 07:37:34;;;;;;;4.28;1.42;;;;;;;;;;5054961;28;20400;-73
2023/10/27 07:41:16;;;;;;;9.50;2.13;;;;;;;;;;5050334;28;20120;-81
2023/10/27 07:44:57;;;;;;;8.88;3.50;;;;;;;;;;5039780;28;20052;-73
2023/10/27 07:48:38;;;;;;;5.72;1.40;;;;;;;;;;5045195;28;20051;-74
2023/10/27 07:52:19;;;;;;;6.07;1.45;;;;;;;;;;5042914;28;20036;-75
2023/10/27 07:55:59;;;;;;;6.05;1.60;;;;;;;;;;5039457;28;20040;-73
2023/10/27 07:59:44;;;;;;;10.18;2.47;;;;;;;;;;5042156;28;20620;-76
2023/10/27 08:03:24;;;;;;;4.80;1.40;;;;;;;;;;5046188;28;20129;-75
2023/10/27 08:07:04;;;;;;;4.22;1.50;;;;;;;;;;5039796;28;20060;-76
2023/10/27 08:10:46;;;;;;;4.13;1.40;;;;;;;;;;5045935;28;20294;-68
2023/10/27 08:14:27;;;;;;;5.10;1.77;;;;;;;;;;5046151;28;20041;-73
2023/10/27 08:18:06;;;;;;;2.38;1.02;;;;;;;;;;5036647;28;20248;-75
2023/10/27 08:21:48;;;;;;;6.50;1.33;;;;;;;;;;5037804;28;20069;-77
2023/10/27 08:25:27;;;;;;;3.75;1.40;;;;;;;;;;5037689;28;20053;-74
2023/10/27 08:29:07;;;;;;;7.38;1.25;;;;;;;;;;5036341;28;20072;-72
2023/10/27 08:32:48;;;;;;;13.70;1.40;;;;;;;;;;5042984;28;20056;-73
2023/10/27 08:36:29;;;;;;;8.57;2.25;;;;;;;;;;5045845;28;20095;-72
2023/10/27 08:40:10;;;;;;;6.57;1.45;;;;;;;;;;5044791;28;20191;-74
2023/10/27 08:43:51;;;;;;;6.00;1.73;;;;;;;;;;5037782;28;20057;-74
2023/10/27 08:47:33;;;;;;;9.52;1.70;;;;;;;;;;5040012;28;20052;-74
2023/10/27 08:51:13;;;;;;;4.20;1.92;;;;;;;;;;5046769;28;20048;-70
2023/10/27 08:54:53;;;;;;;5.32;1.75;;;;;;;;;;5035290;28;20045;-72
2023/10/27 08:58:34;;;;;;;6.32;1.50;;;;;;;;;;5038109;28;20583;-71
2023/10/27 09:02:16;;;;;;;5.63;1.60;;;;;;;;;;5037537;28;20055;-73
2023/10/27 09:05:56;;;;;;;6.80;1.75;;;;;;;;;;5044038;28;20061;-74
2023/10/27 09:09:36;;;;;;;7.55;1.30;;;;;;;;;;5038442;28;20838;-73
2023/10/27 09:13:17;;;;;;;5.95;1.40;;;;;;;;;;5044450;28;20053;-71
2023/10/27 09:17:04;;;;;;;3.22;1.40;;;;;;;;;;5043998;28;20115;-71
2023/10/27 09:20:51;;;;;;;4.45;1.50;;;;;;;;;;5037212;28;20049;-71
2023/10/27 09:24:31;;;;;;;9.13;1.42;;;;;;;;;;5042805;28;20079;-69
2023/10/27 09:28:11;;;;;;;3.28;1.20;;;;;;;;;;5042982;28;20071;-71
2023/10/27 09:31:53;;;;;;;7.15;2.20;;;;;;;;;;5049113;28;20115;-71
2023/10/27 09:35:52;;;;;;;7.95;1.40;;;;;;;;;;5046600;28;20599;-71
2023/10/27 09:39:32;;;;;;;6.43;0.98;;;;;;;;;;5036548;28;20250;-71
2023/10/27 09:43:12;;;;;;;5.82;1.13;;;;;;;;;;5041830;28;20049;-71
2023/10/27 09:46:54;;;;;;;6.82;1.25;;;;;;;;;;5049309;28;20060;-70
2023/10/27 09:50:35;;;;;;;3.75;1.25;;;;;;;;;;5044524;28;20061;-68
2023/10/27 09:54:15;;;;;;;10.70;1.60;;;;;;;;;;5042901;28;20568;-70
2023/10/27 09:57:55;;;;;;;21.15;2.10;;;;;;;;;;5046079;28;20128;-72
2023/10/27 10:01:39;;;;;;;4.82;1.50;;;;;;;;;;5039739;28;20449;-73
2023/10/27 10:04:52;;;;;;;4.97;1.40;;;;;;;;;;5035630;28;20068;-71
2023/10/27 10:08:32;;;;;;;8.02;1.38;;;;;;;;;;5033426;28;20239;-70
2023/10/27 10:12:18;;;;;;;3.25;1.23;;;;;;;;;;5041409;28;20408;-71
2023/10/27 10:15:59;;;;;;;10.68;1.55;;;;;;;;;;5035350;28;20037;-72
2023/10/27 10:19:40;;;;;;;3.22;1.20;;;;;;;;;;5054108;28;20515;-74
2023/10/27 10:22:45;;;;;;;6.30;1.15;;;;;;;;;;5057634;28;20052;-73
2023/10/27 10:26:26;;;;;;;3.55;1.15;;;;;;;;;;5042409;28;20049;-72
2023/10/27 10:30:09;;;;;;;5.80;1.13;;;;;;;;;;5042705;28;20056;-72
2023/10/27 10:33:15;;;;;;;7.05;1.05;;;;;;;;;;5045378;28;20053;-71
2023/10/27 10:36:14;;;;;;;3.25;0.90;;;;;;;;;;5046510;28;20056;-71
2023/10/27 10:39:53;;;;;;;6.30;1.30;;;;;;;;;;5046227;28;20040;-71
2023/10/27 10:43:48;;;;;;;5.07;1.50;;;;;;;;;;5041187;28;20057;-71
2023/10/27 10:47:29;;;;;;;4.68;1.10;;;;;;;;;;5046195;28;20067;-72
2023/10/27 10:51:14;;;;;;;4.25;1.23;;;;;;;;;;5036723;28;20048;-70
2023/10/27 10:54:52;;;;;;;2.75;1.27;;;;;;;;;;5041012;28;20048;-72
2023/10/27 10:58:40;;;;;;;14.90;1.40;;;;;;;;;;5040793;28;20512;-71
2023/10/27 11:02:21;;;;;;;6.10;1.15;;;;;;;;;;5045722;28;20102;-73
2023/10/27 11:06:05;;;;;;;6.88;1.40;;;;;;;;;;5046636;28;20045;-71
2023/10/27 11:09:44;;;;;;;7.60;1.10;;;;;;;;;;5040009;28;20049;-72
2023/10/27 11:13:26;;;;;;;2.10;0.90;;;;;;;;;;5039846;28;20377;-74
2023/10/27 11:17:15;;;;;;;6.82;1.20;;;;;;;;;;5047757;28;20068;-73
2023/10/27 11:20:55;;;;;;;3.80;1.33;;;;;;;;;;5040459;28;20060;-73
2023/10/27 11:24:35;;;;;;;3.42;1.50;;;;;;;;;;5046123;28;20041;-74
2023/10/27 11:28:16;;;;;;;2.92;1.05;;;;;;;;;;5044523;28;20467;-72
2023/10/27 11:31:23;;;;;;;3.53;1.23;;;;;;;;;;5044799;28;20041;-72
2023/10/27 11:35:04;;;;;;;3.38;1.00;;;;;;;;;;5046528;28;20162;-71
2023/10/27 11:38:51;;;;;;;3.45;1.30;;;;;;;;;;5042281;28;20049;-70
2023/10/27 11:42:35;;;;;;;10.85;1.30;;;;;;;;;;5042753;28;20124;-71
2023/10/27 11:46:15;;;;;;;8.20;1.48;;;;;;;;;;5044800;28;20356;-71
2023/10/27 11:49:56;;;;;;;10.20;2.05;;;;;;;;;;5042003;28;20466;-76
2023/10/27 11:53:40;;;;;;;12.02;1.00;;;;;;;;;;5046832;28;20068;-73
2023/10/27 11:57:21;;;;;;;8.60;1.17;;;;;;;;;;5034397;28;20106;-73
2023/10/27 12:01:01;;;;;;;15.57;1.58;;;;;;;;;;5039766;28;20472;-73
2023/10/27 12:04:44;;;;;;;4.07;1.13;;;;;;;;;;5045391;28;20432;-74
2023/10/27 12:08:24;;;;;;;4.82;1.10;;;;;;;;;;5041236;28;20044;-74
2023/10/27 12:12:09;;;;;;;3.20;1.40;;;;;;;;;;5044569;28;20045;-73
2023/10/27 12:15:51;;;;;;;5.45;1.25;;;;;;;;;;5039424;28;20397;-75
2023/10/27 12:19:31;;;;;;;5.78;1.05;;;;;;;;;;5045460;28;20040;-73
2023/10/27 12:23:13;;;;;;;8.93;1.20;;;;;;;;;;5044986;28;20075;-76
2023/10/27 12:26:55;;;;;;;8.18;1.40;;;;;;;;;;5049147;28;20120;-73
2023/10/27 12:30:36;;;;;;;9.88;1.45;;;;;;;;;;5044873;28;20056;-71
2023/10/27 12:34:17;;;;;;;7.90;1.23;;;;;;;;;;5053710;28;20041;-72
2023/10/27 12:37:57;;;;;;;6.15;0.93;;;;;;;;;;5047410;28;20125;-74
2023/10/27 12:41:37;;;;;;;7.68;1.30;;;;;;;;;;5039744;28;20524;-73
2023/10/27 12:45:18;;;;;;;9.13;1.17;;;;;;;;;;5036575;28;20061;-73
2023/10/27 12:48:58;;;;;;;15.45;1.60;;;;;;;;;;5043434;28;20060;-72
2023/10/27 12:52:41;;;;;;;6.60;1.20;;;;;;;;;;5040156;28;20043;-74
2023/10/27 12:56:21;;;;;;;8.63;1.20;;;;;;;;;;5046437;28;20052;-71
2023/10/27 13:00:04;;;;;;;6.10;1.00;;;;;;;;;;5041132;28;20084;-74
2023/10/27 13:03:43;;;;;;;8.73;1.40;;;;;;;;;;5045980;28;20128;-71
2023/10/27 13:07:24;;;;;;;4.97;1.35;;;;;;;;;;5040645;28;20041;-72
2023/10/27 13:11:05;;;;;;;7.97;1.35;;;;;;;;;;5038087;28;20149;-72
2023/10/27 13:14:45;;;;;;;6.55;1.33;;;;;;;;;;5036021;28;20102;-71
2023/10/27 13:18:25;;;;;;;2.95;1.10;;;;;;;;;;5038629;28;20067;-71
2023/10/27 13:22:05;;;;;;;3.67;1.40;;;;;;;;;;5046249;28;20044;-68
2023/10/27 13:25:46;;;;;;;7.80;1.30;;;;;;;;;;5049760;28;20411;-72
2023/10/27 13:29:26;;;;;;;5.57;1.13;;;;;;;;;;5050131;28;20052;-70
2023/10/27 13:33:06;;;;;;;6.03;1.48;;;;;;;;;;5036445;28;20037;-73
2023/10/27 13:36:46;;;;;;;5.65;1.15;;;;;;;;;;5043179;28;20083;-75
2023/10/27 13:40:27;;;;;;;8.07;1.33;;;;;;;;;;5055242;28;20171;-72
2023/10/27 13:44:07;;;;;;;6.18;1.60;;;;;;;;;;5042506;28;20061;-70
2023/10/27 13:47:50;;;;;;;3.55;1.58;;;;;;;;;;5043819;28;20063;-71
2023/10/27 13:51:31;;;;;;;5.57;1.20;;;;;;;;;;5040638;28;20216;-71
2023/10/27 13:55:11;;;;;;;2.63;1.20;;;;;;;;;;5041888;28;20461;-72
2023/10/27 13:58:53;;;;;;;7.45;1.30;;;;;;;;;;5049144;28;20502;-76
2023/10/27 14:02:34;;;;;;;4.15;1.15;;;;;;;;;;5040547;28;20319;-70
2023/10/27 14:06:16;;;;;;;6.78;1.25;;;;;;;;;;5044976;28;20183;-71
2023/10/27 14:09:56;;;;;;;5.05;1.10;;;;;;;;;;5050384;28;20520;-73
2023/10/27 14:13:37;;;;;;;4.13;1.10;;;;;;;;;;5039057;28;20037;-73
2023/10/27 14:17:18;;;;;;;12.05;1.20;;;;;;;;;;5043025;28;20057;-71
2023/10/27 14:20:58;;;;;;;3.35;1.15;;;;;;;;;;5045483;28;20228;-71
2023/10/27 14:24:39;;;;;;;6.28;1.45;;;;;;;;;;5043533;28;20037;-69
2023/10/27 14:28:19;;;;;;;6.78;1.17;;;;;;;;;;5047820;28;20055;-70
2023/10/27 14:31:59;;;;;;;7.90;1.40;;;;;;;;;;5039680;28;20036;-70
2023/10/27 14:35:41;;;;;;;3.65;1.20;;;;;;;;;;5048259;28;20102;-72
2023/10/27 14:39:21;;;;;;;6.95;0.93;;;;;;;;;;5041643;28;20036;-69
2023/10/27 14:43:01;;;;;;;6.43;1.30;;;;;;;;;;5041680;28;20074;-72
2023/10/27 14:46:45;;;;;;;5.43;1.13;;;;;;;;;;5045274;28;20045;-72
2023/10/27 14:50:26;;;;;;;4.68;1.05;;;;;;;;;;5039353;28;20069;-69
2023/10/27 14:54:07;;;;;;;4.03;1.00;;;;;;;;;;5042203;28;20136;-71
2023/10/27 14:57:48;;;;;;;6.90;1.27;;;;;;;;;;5044058;28;20051;-70
2023/10/27 15:01:31;;;;;;;3.92;1.33;;;;;;;;;;5037528;28;20304;-69
2023/10/27 15:05:12;;;;;;;4.82;1.27;;;;;;;;;;5045751;28;20041;-72
2023/10/27 15:08:52;;;;;;;5.70;1.02;;;;;;;;;;5045647;28;20041;-76
2023/10/27 15:12:33;;;;;;;8.80;1.30;;;;;;;;;;5045106;28;20457;-68
2023/10/27 15:16:25;;;;;;;3.30;0.90;;;;;;;;;;5033677;28;20092;-75
2023/10/27 15:20:10;;;;;;;4.07;1.10;;;;;;;;;;5043021;28;20638;-75
2023/10/27 15:23:48;;;;;;;4.70;1.52;;;;;;;;;;5031743;28;20056;-76
2023/10/27 15:27:31;;;;;;;3.10;0.95;;;;;;;;;;5041592;28;20063;-76
2023/10/27 15:31:23;;;;;;;4.65;1.08;;;;;;;;;;5052789;28;20048;-76
2023/10/27 15:35:04;;;;;;;9.60;1.30;;;;;;;;;;5039079;28;20037;-77
2023/10/27 15:38:44;;;;;;;6.35;1.17;;;;;;;;;;5039820;28;20049;-76
2023/10/27 15:42:27;;;;;;;5.60;1.17;;;;;;;;;;5036491;28;20342;-75
2023/10/27 15:46:07;;;;;;;5.22;1.20;;;;;;;;;;5039123;28;20402;-71
2023/10/27 15:50:02;;;;;;;5.90;1.13;;;;;;;;;;5042077;28;20140;-74
2023/10/27 15:53:48;;;;;;;2.65;1.00;;;;;;;;;;5042264;28;20117;-74
2023/10/27 15:57:27;;;;;;;11.50;1.42;;;;;;;;;;5044237;28;20048;-74
2023/10/27 16:01:07;;;;;;;6.75;1.10;;;;;;;;;;5041339;28;20045;-74
2023/10/27 16:04:47;;;;;;;4.75;1.52;;;;;;;;;;5049443;28;20493;-73
2023/10/27 16:08:28;;;;;;;5.28;1.50;;;;;;;;;;5049283;28;20100;-72
2023/10/27 16:12:11;;;;;;;3.67;1.25;;;;;;;;;;5044628;28;20045;-74
2023/10/27 16:15:52;;;;;;;6.90;1.52;;;;;;;;;;5035062;28;20143;-71
2023/10/27 16:19:34;;;;;;;3.17;1.13;;;;;;;;;;5043792;28;20045;-71
2023/10/27 16:23:14;;;;;;;4.25;1.23;;;;;;;;;;5035196;28;20084;-72
2023/10/27 16:26:56;;;;;;;3.38;1.33;;;;;;;;;;5036487;28;20038;-74
2023/10/27 16:30:36;;;;;;;4.28;1.20;;;;;;;;;;5044861;28;20051;-74
2023/10/27 16:34:17;;;;;;;5.10;1.10;;;;;;;;;;5045366;28;20144;-71
2023/10/27 16:37:59;;;;;;;3.72;1.02;;;;;;;;;;5044384;28;20049;-72
2023/10/27 16:41:42;;;;;;;7.93;1.80;;;;;;;;;;5036057;28;20045;-71
2023/10/27 16:45:24;;;;;;;5.70;1.27;;;;;;;;;;5040034;28;20053;-72
2023/10/27 16:49:04;;;;;;;6.85;1.42;;;;;;;;;;5040017;28;20045;-72
2023/10/27 16:52:45;;;;;;;4.60;1.00;;;;;;;;;;5033216;28;20429;-73
2023/10/27 16:55:52;;;;;;;2.60;0.95;;;;;;;;;;5048636;28;20512;-71
2023/10/27 16:59:14;;;;;;;7.35;1.40;;;;;;;;;;5034867;28;20049;-72
2023/10/27 17:02:55;;;;;;;6.35;1.10;;;;;;;;;;5045129;28;20114;-73
2023/10/27 17:06:36;;;;;;;5.22;1.25;;;;;;;;;;5042578;28;20466;-73
2023/10/27 17:10:16;;;;;;;2.88;0.90;;;;;;;;;;5037256;28;20038;-73
2023/10/27 17:13:57;;;;;;;7.47;1.27;;;;;;;;;;5034892;28;20056;-72
2023/10/27 17:17:42;;;;;;;6.13;1.42;;;;;;;;;;5045585;28;20487;-69
2023/10/27 17:21:30;;;;;;;7.65;3.03;;;;;;;;;;5046315;28;20041;-70
2023/10/27 17:25:11;;;;;;;4.82;1.15;;;;;;;;;;5047871;28;20068;-74
2023/10/27 17:28:52;;;;;;;3.65;1.02;;;;;;;;;;5040630;28;20069;-72
2023/10/27 17:32:32;;;;;;;5.72;1.55;;;;;;;;;;5039886;28;20037;-70
2023/10/27 17:36:17;;;;;;;4.53;1.17;;;;;;;;;;5045124;28;20956;-69
2023/10/27 17:39:56;;;;;;;3.22;1.25;;;;;;;;;;5043185;28;20497;-69
2023/10/27 17:43:37;;;;;;;4.93;1.40;;;;;;;;;;5042126;28;20042;-71
2023/10/27 17:47:17;;;;;;;3.60;1.23;;;;;;;;;;5041702;28;20058;-70
2023/10/27 17:51:03;;;;;;;5.38;1.30;;;;;;;;;;5046161;28;20067;-76
2023/10/27 17:54:43;;;;;;;4.38;1.42;;;;;;;;;;5043525;28;20046;-77
2023/10/27 17:58:22;;;;;;;10.50;1.67;;;;;;;;;;5043284;28;20397;-76
2023/10/27 18:02:03;;;;;;;4.88;1.70;;;;;;;;;;5047792;28;20050;-75
2023/10/27 18:05:43;;;;;;;5.20;1.80;;;;;;;;;;5037398;28;20107;-74
2023/10/27 18:09:25;;;;;;;9.35;2.13;;;;;;;;;;5040469;28;20080;-77
2023/10/27 18:12:38;;;;;;;6.30;2.03;;;;;;;;;;5035190;28;20407;-74
2023/10/27 18:16:19;;;;;;;8.05;2.25;;;;;;;;;;5036215;28;20048;-72
2023/10/27 18:20:05;;;;;;;5.40;1.70;;;;;;;;;;5031299;28;20068;-68
2023/10/27 18:23:43;;;;;;;7.45;1.90;;;;;;;;;;5035221;28;20136;-70
2023/10/27 18:27:23;;;;;;;6.43;1.33;;;;;;;;;;5033731;28;20068;-70
2023/10/27 18:31:03;;;;;;;4.57;1.45;;;;;;;;;;5033627;28;20056;-70
2023/10/27 18:34:45;;;;;;;4.70;1.58;;;;;;;;;;5039237;28;20045;-72
2023/10/27 18:38:26;;;;;;;5.95;1.55;;;;;;;;;;5041346;28;20405;-72
2023/10/27 18:42:09;;;;;;;5.10;1.67;;;;;;;;;;5034913;28;20146;-73
2023/10/27 18:45:51;;;;;;;2.85;1.25;;;;;;;;;;5041315;28;20063;-72
2023/10/27 18:49:34;;;;;;;7.65;1.77;;;;;;;;;;5039972;28;20048;-74
2023/10/27 18:53:15;;;;;;;9.95;1.67;;;;;;;;;;5041338;28;20057;-72
2023/10/27 18:56:55;;;;;;;9.73;2.63;;;;;;;;;;5035785;28;20049;-70
2023/10/27 19:00:41;;;;;;;8.10;1.67;;;;;;;;;;5037364;28;20045;-74
2023/10/27 19:04:19;;;;;;;6.18;2.00;;;;;;;;;;5039556;28;20049;-73
2023/10/27 19:07:59;;;;;;;7.25;2.10;;;;;;;;;;5041989;28;20060;-74
2023/10/27 19:11:39;;;;;;;3.45;1.55;;;;;;;;;;5033538;28;20053;-72
2023/10/27 19:15:20;;;;;;;6.25;1.90;;;;;;;;;;5036229;28;20420;-73
2023/10/27 19:19:00;;;;;;;6.32;2.00;;;;;;;;;;5037484;28;20508;-72
2023/10/27 19:22:40;;;;;;;6.18;2.20;;;;;;;;;;5032152;28;20047;-75
2023/10/27 19:26:39;;;;;;;8.18;1.83;;;;;;;;;;5039288;28;20548;-73
2023/10/27 19:30:19;;;;;;;6.03;2.00;;;;;;;;;;5035969;28;20564;-74
2023/10/27 19:34:00;;;;;;;13.35;2.30;;;;;;;;;;5037052;28;20068;-73
2023/10/27 19:37:41;;;;;;;5.88;2.40;;;;;;;;;;5037358;28;20037;-74
2023/10/27 19:41:21;;;;;;;5.88;2.00;;;;;;;;;;5035480;28;20397;-73
2023/10/27 19:45:02;;;;;;;8.68;2.67;;;;;;;;;;5036387;28;20266;-74
2023/10/27 19:48:44;;;;;;;8.30;2.00;;;;;;;;;;5036489;28;20084;-71
2023/10/27 19:52:26;;;;;;;6.75;1.92;;;;;;;;;;5035616;28;20052;-72
2023/10/27 19:56:05;;;;;;;6.57;1.90;;;;;;;;;;5035801;28;20040;-74
2023/10/27 19:59:46;;;;;;;7.57;1.90;;;;;;;;;;5034583;28;20041;-72
2023/10/27 20:03:27;;;;;;;9.18;2.15;;;;;;;;;;5038879;28;20048;-72
2023/10/27 20:07:10;;;;;;;9.02;2.05;;;;;;;;;;5035277;28;20532;-72
2023/10/27 20:10:48;;;;;;;6.60;1.90;;;;;;;;;;5037720;28;20053;-71
2023/10/27 20:14:28;;;;;;;4.82;1.90;;;;;;;;;;5040618;28;20127;-73
2023/10/27 20:18:10;;;;;;;7.78;2.05;;;;;;;;;;5040312;28;20045;-72
2023/10/27 20:21:52;;;;;;;6.15;1.85;;;;;;;;;;5038507;28;20056;-72
2023/10/27 20:25:34;;;;;;;6.47;1.70;;;;;;;;;;5036892;28;20044;-72
2023/10/27 20:29:15;;;;;;;8.93;1.83;;;;;;;;;;5039481;28;20091;-72
2023/10/27 20:32:58;;;;;;;7.35;1.58;;;;;;;;;;5037831;28;20117;-74
2023/10/27 20:36:38;;;;;;;7.00;1.45;;;;;;;;;;5038239;28;20045;-71
2023/10/27 20:40:20;;;;;;;6.25;1.55;;;;;;;;;;5035260;28;20135;-72
2023/10/27 20:44:01;;;;;;;6.90;1.63;;;;;;;;;;5038144;28;20524;-74
2023/10/27 20:47:44;;;;;;;5.45;1.60;;;;;;;;;;5035483;28;20110;-71
2023/10/27 20:51:24;;;;;;;8.40;1.45;;;;;;;;;;5036184;28;20068;-74
2023/10/27 20:55:08;;;;;;;6.05;1.58;;;;;;;;;;5041290;28;20099;-71
2023/10/27 20:58:48;;;;;;;5.70;1.45;;;;;;;;;;5045248;28;20044;-72
2023/10/27 21:02:29;;;;;;;4.32;1.30;;;;;;;;;;5039100;28;20049;-71
2023/10/27 21:06:10;;;;;;;5.50;1.95;;;;;;;;;;5038376;28;20106;-71
2023/10/27 21:09:49;;;;;;;7.28;1.50;;;;;;;;;;5046437;28;20128;-73
2023/10/27 21:13:30;;;;;;;4.57;1.33;;;;;;;;;;5042479;28;20556;-72
2023/10/27 21:17:10;;;;;;;5.35;1.85;;;;;;;;;;5045744;28;20049;-73
2023/10/27 21:20:50;;;;;;;7.28;1.98;;;;;;;;;;5038509;28;20056;-72
2023/10/27 21:24:32;;;;;;;6.35;1.90;;;;;;;;;;5042244;28;20057;-72
2023/10/27 21:28:11;;;;;;;6.15;1.73;;;;;;;;;;5040691;28;20048;-69